createdAt,value
2018-02-06T00:00:31.394Z,102443.41
2018-02-06T00:02:57.151Z,102446.81
2018-02-06T00:05:22.939Z,102456.10
2018-02-06T00:07:48.696Z,102453.23
2018-02-06T00:10:14.503Z,102452.23
2018-02-06T00:12:40.240Z,102448.77
2018-02-06T00:15:06.000Z,102450.73
2018-02-06T00:17:31.771Z,102444.77
2018-02-06T00:19:57.531Z,102440.37
2018-02-06T00:22:35.830Z,102441.77
2018-02-06T00:25:01.599Z,102442.19
2018-02-06T00:27:27.366Z,102432.18
2018-02-06T00:29:53.138Z,102430.58
2018-02-06T00:32:18.909Z,102428.09
2018-02-06T00:34:44.668Z,102420.78
2018-02-06T00:37:10.446Z,102424.33
2018-02-06T00:39:36.194Z,102413.92
2018-02-06T00:42:01.970Z,102410.20
2018-02-06T00:44:27.739Z,102405.41
2018-02-06T00:46:53.494Z,102400.20
2018-02-06T00:49:19.263Z,102390.08
2018-02-06T00:51:45.023Z,102392.14
2018-02-06T00:54:10.790Z,102387.87
2018-02-06T00:56:36.551Z,102380.95
2018-02-06T00:59:02.318Z,102383.28
2018-02-06T01:01:28.062Z,102374.22
2018-02-06T01:03:53.847Z,102364.98
2018-02-06T01:06:19.600Z,102364.91
2018-02-06T01:08:45.384Z,102359.92
2018-02-06T01:11:11.140Z,102362.00
2018-02-06T01:13:36.906Z,102361.91
2018-02-06T01:16:02.723Z,102352.77
2018-02-06T01:18:28.447Z,102348.19
2018-02-06T01:20:54.215Z,102339.14
2018-02-06T01:23:19.975Z,102343.16
2018-02-06T01:25:45.742Z,102347.53
2018-02-06T01:28:11.514Z,102334.63
2018-02-06T01:30:37.270Z,102324.17
2018-02-06T01:33:03.039Z,102322.13
2018-02-06T01:35:28.835Z,102324.57
2018-02-06T01:37:54.601Z,102316.34
2018-02-06T01:40:20.358Z,102311.78
2018-02-06T01:42:46.118Z,102310.95
2018-02-06T01:45:11.890Z,102315.89
2018-02-06T01:47:37.639Z,102312.80
2018-02-06T01:50:03.405Z,102302.89
2018-02-06T01:52:29.166Z,102297.54
2018-02-06T01:54:54.931Z,102295.42
2018-02-06T01:57:20.682Z,102291.38
2018-02-06T01:59:46.451Z,102287.72
2018-02-06T02:02:12.191Z,102281.45
2018-02-06T02:04:37.957Z,102285.26
2018-02-06T02:07:03.722Z,102287.34
2018-02-06T02:09:29.486Z,102276.39
2018-02-06T02:11:55.239Z,102267.09
2018-02-06T02:14:21.011Z,102265.79
2018-02-06T02:16:46.767Z,102261.73
2018-02-06T02:19:12.885Z,102258.09
2018-02-06T02:21:38.667Z,102256.58
2018-02-06T02:24:04.432Z,102256.02
2018-02-06T02:26:30.210Z,102248.95
2018-02-06T02:28:55.954Z,102240.28
2018-02-06T02:31:21.736Z,102242.55
2018-02-06T02:33:47.482Z,102236.55
2018-02-06T02:36:13.266Z,102238.06
2018-02-06T02:38:39.028Z,102238.55
2018-02-06T02:41:04.795Z,102240.80
2018-02-06T04:40:04.067Z,102150.70
2018-02-06T04:42:29.806Z,102149.92
2018-02-06T04:44:55.566Z,102144.95
2018-02-06T04:47:21.322Z,102135.79
2018-02-06T04:49:47.111Z,102134.10
2018-02-06T04:52:12.878Z,102128.99
2018-02-06T04:54:38.630Z,102130.93
2018-02-06T04:57:04.374Z,102124.70
2018-02-06T04:59:30.133Z,102125.76
2018-02-06T05:01:55.886Z,102122.82
2018-02-06T05:04:21.641Z,102125.66
2018-02-06T05:06:47.454Z,102121.80
2018-02-06T05:09:13.234Z,102120.66
2018-02-06T05:11:38.976Z,102116.02
2018-02-06T05:14:04.734Z,102111.92
2018-02-06T05:16:30.467Z,102116.70
2018-02-06T05:18:56.229Z,102106.14
2018-02-06T05:21:21.994Z,102110.00
2018-02-06T05:23:47.745Z,102103.63
2018-02-06T05:26:13.502Z,102099.84
2018-02-06T05:28:39.250Z,102104.20
2018-02-06T05:31:05.007Z,102102.80
2018-02-06T05:33:30.756Z,102091.17
2018-02-06T05:35:56.522Z,102092.00
2018-02-06T05:38:22.263Z,102084.44
2018-02-06T05:40:48.026Z,102081.92
2018-02-06T05:43:13.786Z,102074.63
2018-02-06T05:45:39.582Z,102065.23
2018-02-06T05:48:05.277Z,102069.70
2018-02-06T05:50:31.018Z,102065.05
2018-02-06T05:52:56.759Z,102061.55
2018-02-06T05:55:22.507Z,102062.39
2018-02-06T05:57:48.243Z,102055.00
2018-02-06T06:00:13.998Z,102047.55
2018-02-06T06:02:39.739Z,102044.72
2018-02-06T06:05:05.506Z,102045.09
2018-02-06T06:07:31.270Z,102039.53
2018-02-06T06:09:57.006Z,102040.21
2018-02-06T06:12:22.767Z,102033.70
2018-02-06T06:14:48.515Z,102032.43
2018-02-06T06:17:14.258Z,102024.66
2018-02-06T06:19:39.991Z,102027.11
2018-02-06T06:22:05.750Z,102026.98
2018-02-06T06:24:31.491Z,102020.87
2018-02-06T06:26:57.252Z,102019.92
2018-02-06T06:29:22.991Z,102021.20
2018-02-06T06:31:48.750Z,102019.27
2018-02-06T06:34:14.483Z,102020.09
2018-02-06T06:36:40.242Z,102014.14
2018-02-06T06:39:05.978Z,102011.52
2018-02-06T06:41:31.730Z,102013.84
2018-02-06T06:43:57.470Z,102012.67
2018-02-06T06:46:23.236Z,102013.56
2018-02-06T06:48:48.982Z,102013.41
2018-02-06T06:51:14.735Z,102018.27
2018-02-06T06:53:40.507Z,102019.59
2018-02-06T06:56:06.255Z,102015.63
2018-02-06T06:58:32.014Z,102015.12
2018-02-06T07:00:57.774Z,102015.78
2018-02-06T07:03:23.528Z,102010.86
2018-02-06T07:05:49.276Z,102010.36
2018-02-06T07:08:15.027Z,102009.69
2018-02-06T07:10:40.778Z,101996.88
2018-02-06T07:13:06.538Z,101996.06
2018-02-06T07:15:32.284Z,101994.28
2018-02-06T07:17:58.042Z,102000.68
2018-02-06T07:20:24.739Z,101998.58
2018-02-06T07:22:50.503Z,101991.53
2018-02-06T07:25:16.250Z,101996.49
2018-02-06T07:27:42.019Z,101993.36
2018-02-06T07:30:07.764Z,101987.84
2018-02-06T07:32:33.515Z,101984.74
2018-02-06T07:34:59.279Z,101985.12
2018-02-06T07:37:25.033Z,101983.83
2018-02-06T07:39:50.790Z,101991.06
2018-02-06T07:42:16.531Z,101982.77
2018-02-06T07:44:42.309Z,101986.16
2018-02-06T07:47:08.051Z,101985.44
2018-02-06T07:49:33.811Z,101986.73
2018-02-06T07:51:59.567Z,101987.29
2018-02-06T07:54:25.323Z,101989.17
2018-02-06T07:56:51.066Z,101987.92
2018-02-06T07:59:16.831Z,101982.25
2018-02-06T08:01:42.575Z,101983.85
2018-02-06T08:04:08.331Z,101975.41
2018-02-06T08:06:34.080Z,101975.48
2018-02-06T08:08:59.838Z,101977.95
2018-02-06T08:11:25.578Z,101974.63
2018-02-06T08:13:51.334Z,101976.67
2018-02-06T08:16:17.087Z,101982.54
2018-02-06T08:18:42.835Z,101978.30
2018-02-06T08:21:08.595Z,101980.67
2018-02-06T08:23:34.404Z,101976.69
2018-02-06T08:26:00.188Z,101978.19
2018-02-06T08:28:32.840Z,101973.26
2018-02-06T08:30:58.599Z,101973.84
2018-02-06T08:33:24.346Z,101971.38
2018-02-06T08:35:50.102Z,101969.13
2018-02-06T08:38:15.855Z,101972.16
2018-02-06T08:40:41.622Z,101970.41
2018-02-06T08:43:07.367Z,101967.12
2018-02-06T08:45:33.110Z,101968.02
2018-02-06T08:47:58.856Z,101962.45
2018-02-06T08:50:24.621Z,101959.58
2018-02-06T08:52:50.368Z,101953.19
2018-02-06T08:55:16.126Z,101954.41
2018-02-06T08:57:41.862Z,101955.64
2018-02-06T09:00:07.676Z,101948.41
2018-02-06T09:02:33.420Z,101948.85
2018-02-06T09:04:59.186Z,101951.31
2018-02-06T09:07:24.927Z,101955.71
2018-02-06T09:09:50.687Z,101945.49
2018-02-06T09:12:16.430Z,101947.67
2018-02-06T09:14:42.183Z,101944.63
2018-02-06T09:17:07.942Z,101948.14
2018-02-06T09:19:33.675Z,101947.67
2018-02-06T09:21:59.725Z,101938.47
2018-02-06T09:24:25.510Z,101934.77
2018-02-06T09:26:51.292Z,101935.28
2018-02-06T09:29:17.111Z,101931.13
2018-02-06T09:31:42.862Z,101931.55
2018-02-06T09:34:08.598Z,101931.68
2018-02-06T09:36:34.362Z,101923.86
2018-02-06T09:39:00.103Z,101922.30
2018-02-06T09:41:25.859Z,101921.20
2018-02-06T09:43:51.610Z,101915.92
2018-02-06T09:46:17.368Z,101908.86
2018-02-06T09:48:43.108Z,101916.64
2018-02-06T09:51:08.854Z,101904.13
2018-02-06T09:53:34.602Z,101907.50
2018-02-06T09:56:00.355Z,101907.22
2018-02-06T09:58:26.116Z,101908.53
2018-02-06T10:00:51.871Z,101911.56
2018-02-06T10:03:17.627Z,101899.00
2018-02-06T10:05:43.377Z,101900.61
2018-02-06T10:08:09.129Z,101902.92
2018-02-06T10:10:34.870Z,101889.70
2018-02-06T10:13:00.630Z,101886.98
2018-02-06T10:15:26.379Z,101882.86
2018-02-06T10:17:52.138Z,101874.51
2018-02-06T10:20:17.882Z,101876.61
2018-02-06T10:22:43.641Z,101874.23
2018-02-06T10:25:09.393Z,101862.08
2018-02-06T10:27:35.161Z,101864.98
2018-02-06T10:30:00.904Z,101861.13
2018-02-06T10:32:26.664Z,101859.44
2018-02-06T10:34:52.414Z,101863.83
2018-02-06T10:37:18.178Z,101854.43
2018-02-06T10:39:43.926Z,101852.17
2018-02-06T10:42:09.667Z,101849.09
2018-02-06T10:44:35.422Z,101850.75
2018-02-06T10:47:01.159Z,101849.25
2018-02-06T10:49:26.924Z,101847.67
2018-02-06T10:51:52.670Z,101842.17
2018-02-06T10:54:18.536Z,101835.03
2018-02-06T10:56:44.278Z,101841.88
2018-02-06T10:59:10.134Z,101839.73
2018-02-06T11:01:35.894Z,101837.32
2018-02-06T11:04:01.703Z,101829.65
2018-02-06T11:06:27.448Z,101826.09
2018-02-06T11:08:53.213Z,101822.59
2018-02-06T11:11:18.956Z,101822.28
2018-02-06T11:13:44.710Z,101818.47
2018-02-06T11:16:10.468Z,101811.95
2018-02-06T11:18:36.217Z,101812.26
2018-02-06T11:21:01.963Z,101808.44
2018-02-06T11:23:27.718Z,101803.01
2018-02-06T11:25:53.478Z,101799.06
2018-02-06T11:28:19.225Z,101789.97
2018-02-06T11:30:44.984Z,101794.01
2018-02-06T11:33:10.726Z,101792.84
2018-02-06T11:35:36.466Z,101794.36
2018-02-06T11:38:02.217Z,101792.16
2018-02-06T11:40:27.991Z,101790.67
2018-02-06T11:42:53.734Z,101784.02
2018-02-06T11:45:19.547Z,101786.88
2018-02-06T11:47:45.283Z,101786.75
2018-02-06T11:50:11.055Z,101785.24
2018-02-06T11:52:36.825Z,101778.03
2018-02-06T11:55:02.590Z,101783.29
2018-02-06T11:57:28.337Z,101777.58
2018-02-06T11:59:54.087Z,101774.33
2018-02-06T12:02:19.826Z,101775.18
2018-02-06T12:04:45.555Z,101768.92
2018-02-06T12:07:11.299Z,101764.64
2018-02-06T12:09:37.042Z,101769.56
2018-02-06T12:12:02.789Z,101767.34
2018-02-06T12:14:28.548Z,101768.98
2018-02-06T12:16:54.345Z,101763.81
2018-02-06T12:19:20.054Z,101758.87
2018-02-06T12:21:45.814Z,101764.58
2018-02-06T12:24:11.554Z,101752.02
2018-02-06T12:26:37.319Z,101760.60
2018-02-06T12:29:03.046Z,101752.03
2018-02-06T12:31:28.806Z,101752.85
2018-02-06T12:33:54.555Z,101744.25
2018-02-06T12:36:20.324Z,101748.05
2018-02-06T12:38:46.071Z,101749.95
2018-02-06T12:41:11.834Z,101750.22
2018-02-06T12:43:37.584Z,101746.00
2018-02-06T12:46:03.338Z,101735.89
2018-02-06T12:48:29.094Z,101735.16
2018-02-06T12:50:54.822Z,101728.22
2018-02-06T12:53:20.575Z,101724.07
2018-02-06T12:55:46.327Z,101717.03
2018-02-06T12:58:12.096Z,101718.82
2018-02-06T13:00:37.842Z,101722.16
2018-02-06T13:03:03.595Z,101707.31
2018-02-06T13:05:30.139Z,101706.17
2018-02-06T13:07:55.894Z,101704.46
2018-02-06T13:10:21.640Z,101698.88
2018-02-06T13:12:47.402Z,101700.05
2018-02-06T13:15:13.155Z,101689.89
2018-02-06T13:17:38.906Z,101691.46
2018-02-06T13:20:04.662Z,101688.17
2018-02-06T13:22:30.390Z,101680.95
2018-02-06T13:24:56.158Z,101687.50
2018-02-06T13:27:21.897Z,101684.42
2018-02-06T13:29:47.639Z,101680.75
2018-02-06T13:32:13.376Z,101678.27
2018-02-06T13:34:39.117Z,101673.85
2018-02-06T13:37:04.862Z,101671.19
2018-02-06T13:39:30.627Z,101668.73
2018-02-06T13:41:56.376Z,101666.09
2018-02-06T13:44:22.141Z,101665.64
2018-02-06T13:46:47.885Z,101664.70
2018-02-06T13:49:13.650Z,101661.02
2018-02-06T13:51:39.402Z,101659.44
2018-02-06T13:54:05.195Z,101655.28
2018-02-06T13:56:30.942Z,101653.31
2018-02-06T13:58:56.692Z,101653.58
2018-02-06T14:01:22.447Z,101647.89
2018-02-06T14:03:48.217Z,101637.26
2018-02-06T14:06:13.966Z,101636.50
2018-02-06T14:08:39.730Z,101636.67
2018-02-06T14:11:05.499Z,101637.93
2018-02-06T14:13:31.251Z,101636.45
2018-02-06T14:15:57.031Z,101631.12
2018-02-06T14:18:22.783Z,101630.04
2018-02-06T14:20:48.570Z,101631.66
2018-02-06T14:23:14.311Z,101628.16
2018-02-06T14:25:40.082Z,101627.94
2018-02-06T14:28:05.831Z,101629.55
2018-02-06T14:30:31.596Z,101629.02
2018-02-06T14:32:57.333Z,101623.32
2018-02-06T14:35:23.246Z,101623.81
2018-02-06T14:37:49.794Z,101628.42
2018-02-06T14:40:15.546Z,101623.69
2018-02-06T14:42:41.353Z,101624.62
2018-02-06T14:45:07.110Z,101622.42
2018-02-06T14:47:32.874Z,101617.19
2018-02-06T14:49:58.618Z,101618.48
2018-02-06T14:52:24.383Z,101619.95
2018-02-06T14:54:50.127Z,101620.53
2018-02-06T14:57:15.942Z,101620.75
2018-02-06T14:59:41.683Z,101619.14
2018-02-06T15:02:07.442Z,101619.45
2018-02-06T15:04:33.181Z,101617.91
2018-02-06T15:06:58.945Z,101621.77
2018-02-06T15:09:24.695Z,101621.48
2018-02-06T15:11:50.442Z,101622.14
2018-02-06T15:14:16.193Z,101620.84
2018-02-06T15:16:41.948Z,101621.08
2018-02-06T15:19:07.706Z,101613.00
2018-02-06T15:21:33.460Z,101615.34
2018-02-06T15:23:59.206Z,101613.75
2018-02-06T15:26:24.954Z,101617.99
2018-02-06T15:28:50.707Z,101620.30
2018-02-06T15:31:16.460Z,101620.39
2018-02-06T15:33:42.210Z,101616.84
2018-02-06T15:36:07.963Z,101610.92
2018-02-06T15:38:33.736Z,101613.06
2018-02-06T15:40:59.478Z,101622.05
2018-02-06T15:43:25.234Z,101622.75
2018-02-06T15:45:51.003Z,101622.30
2018-02-06T15:48:16.762Z,101622.20
2018-02-06T15:50:42.514Z,101619.75
2018-02-06T15:53:08.289Z,101617.30
2018-02-06T15:55:34.048Z,101618.67
2018-02-06T15:57:59.810Z,101616.71
2018-02-06T16:00:33.701Z,101619.98
2018-02-06T16:02:59.475Z,101609.31
2018-02-06T16:05:25.215Z,101612.99
2018-02-06T16:07:50.971Z,101615.95
2018-02-06T16:10:16.750Z,101618.89
2018-02-06T16:12:42.494Z,101622.59
2018-02-06T16:15:08.258Z,101611.07
2018-02-06T16:17:34.011Z,101607.47
2018-02-06T16:19:59.784Z,101604.83
2018-02-06T16:22:25.540Z,101610.41
2018-02-06T16:24:51.311Z,101605.05
2018-02-06T16:27:17.066Z,101605.19
2018-02-06T16:29:42.830Z,101602.36
2018-02-06T16:32:08.598Z,101600.63
2018-02-06T16:34:34.362Z,101601.65
2018-02-06T16:37:00.118Z,101602.13
2018-02-06T16:39:25.875Z,101610.95
2018-02-06T16:41:51.631Z,101603.56
2018-02-06T16:44:17.394Z,101602.36
2018-02-06T16:46:43.151Z,101596.54
2018-02-06T16:49:08.910Z,101603.88
2018-02-06T16:51:34.696Z,101600.56
2018-02-06T16:54:00.450Z,101600.45
2018-02-06T16:56:26.215Z,101604.23
2018-02-06T16:58:51.973Z,101602.33
2018-02-06T17:01:17.742Z,101598.83
2018-02-06T17:03:43.482Z,101610.28
2018-02-06T17:06:09.246Z,101606.56
2018-02-06T17:08:34.999Z,101601.05
2018-02-06T17:11:00.767Z,101608.78
2018-02-06T17:13:26.514Z,101604.59
2018-02-06T17:15:52.275Z,101602.58
2018-02-06T17:18:18.024Z,101598.29
2018-02-06T17:20:43.789Z,101600.66
2018-02-06T17:23:09.536Z,101609.98
2018-02-06T17:25:35.303Z,101598.52
2018-02-06T17:28:01.054Z,101607.30
2018-02-06T17:30:26.814Z,101606.12
2018-02-06T17:32:52.554Z,101600.37
2018-02-06T17:35:18.318Z,101603.52
2018-02-06T17:37:44.079Z,101605.88
2018-02-06T17:40:16.879Z,101604.91
2018-02-06T17:42:42.640Z,101608.34
2018-02-06T17:45:08.387Z,101608.41
2018-02-06T17:47:34.159Z,101613.24
2018-02-06T17:49:59.909Z,101610.09
2018-02-06T17:52:25.666Z,101607.63
2018-02-06T17:54:51.416Z,101609.56
2018-02-06T17:57:17.183Z,101609.52
2018-02-06T17:59:42.930Z,101612.03
2018-02-06T18:02:08.711Z,101611.73
2018-02-06T18:04:34.462Z,101613.80
2018-02-06T18:07:00.210Z,101612.66
2018-02-06T18:09:25.958Z,101611.68
2018-02-06T18:11:51.708Z,101615.51
2018-02-06T18:14:17.466Z,101612.97
2018-02-06T18:16:43.206Z,101618.74
2018-02-06T18:19:08.975Z,101617.58
2018-02-06T18:21:34.721Z,101617.97
2018-02-06T18:24:00.503Z,101616.33
2018-02-06T18:26:26.259Z,101619.52
2018-02-06T18:28:52.015Z,101613.20
2018-02-06T18:31:17.827Z,101615.87
2018-02-06T18:33:43.539Z,101611.33
2018-02-06T18:36:09.494Z,101613.67
2018-02-06T18:38:35.449Z,101617.79
2018-02-06T18:41:01.206Z,101619.99
2018-02-06T18:43:26.972Z,101627.03
2018-02-06T18:45:52.723Z,101608.95
2018-02-06T18:48:18.495Z,101619.41
2018-02-06T18:50:44.227Z,101620.66
2018-02-06T18:53:09.987Z,101625.30
2018-02-06T18:55:35.755Z,101620.13
2018-02-06T18:58:01.499Z,101622.12
2018-02-06T19:00:27.255Z,101625.29
2018-02-06T19:02:53.003Z,101626.31
2018-02-06T19:05:18.757Z,101625.54
2018-02-06T19:07:44.509Z,101623.42
2018-02-06T19:10:10.268Z,101620.37
2018-02-06T19:12:36.039Z,101619.00
2018-02-06T19:15:01.840Z,101620.03
2018-02-06T19:17:27.558Z,101620.55
2018-02-06T19:19:53.318Z,101620.22
2018-02-06T19:22:19.075Z,101616.39
2018-02-06T19:24:44.818Z,101623.48
2018-02-06T19:27:10.573Z,101622.45
2018-02-06T19:29:36.315Z,101625.12
2018-02-06T19:32:02.068Z,101622.78
2018-02-06T19:34:27.826Z,101623.50
2018-02-06T19:36:53.574Z,101624.24
2018-02-06T19:39:19.350Z,101623.79
2018-02-06T19:41:45.110Z,101630.92
2018-02-06T19:44:10.872Z,101628.74
2018-02-06T19:46:36.637Z,101635.55
2018-02-06T19:49:02.394Z,101630.17
2018-02-06T19:51:28.158Z,101635.34
2018-02-06T19:53:53.921Z,101636.27
2018-02-06T19:56:19.689Z,101640.06
2018-02-06T19:58:45.439Z,101632.44
2018-02-06T20:01:11.198Z,101635.62
2018-02-06T20:03:36.970Z,101635.27
2018-02-06T20:06:02.734Z,101638.71
2018-02-06T20:08:28.490Z,101640.14
2018-02-06T20:10:54.260Z,101643.54
2018-02-06T20:13:20.003Z,101642.38
2018-02-06T20:15:45.760Z,101650.95
2018-02-06T20:18:11.512Z,101642.72
2018-02-06T20:20:37.280Z,101648.02
2018-02-06T20:23:03.043Z,101650.06
2018-02-06T20:25:28.798Z,101648.64
2018-02-06T20:27:54.567Z,101648.34
2018-02-06T20:30:20.321Z,101650.09
2018-02-06T20:32:46.087Z,101654.25
2018-02-06T20:35:11.841Z,101640.19
2018-02-06T20:37:37.607Z,101638.64
2018-02-06T20:40:03.358Z,101638.33
2018-02-06T20:42:29.114Z,101640.14
2018-02-06T20:44:54.875Z,101643.56
2018-02-06T20:47:20.627Z,101636.59
2018-02-06T20:49:46.387Z,101635.31
2018-02-06T20:52:12.138Z,101636.81
2018-02-06T20:54:37.919Z,101644.17
2018-02-06T20:57:03.793Z,101644.31
2018-02-06T20:59:29.541Z,101654.09
2018-02-06T21:01:55.311Z,101646.61
2018-02-06T21:04:21.080Z,101638.92
2018-02-06T21:06:46.843Z,101648.08
2018-02-06T21:09:12.583Z,101650.24
2018-02-06T21:11:38.330Z,101646.66
2018-02-06T21:14:04.079Z,101655.23
2018-02-06T21:16:31.047Z,101655.59
2018-02-06T21:18:56.786Z,101650.37
2018-02-06T21:21:23.359Z,101645.83
2018-02-06T21:23:49.207Z,101641.96
2018-02-06T21:26:15.195Z,101649.77
2018-02-06T21:28:40.968Z,101643.02
2018-02-06T21:31:06.710Z,101650.16
2018-02-06T21:33:32.695Z,101644.68
2018-02-06T21:35:58.456Z,101644.53
2018-02-06T21:38:24.210Z,101643.48
2018-02-06T21:40:49.974Z,101645.16
2018-02-06T21:43:15.767Z,101652.52
2018-02-06T21:45:41.508Z,101647.69
2018-02-06T21:48:07.270Z,101641.44
2018-02-06T21:50:33.031Z,101646.66
2018-02-06T21:52:58.799Z,101647.80
2018-02-06T21:55:24.546Z,101654.29
2018-02-06T21:57:50.573Z,101658.08
2018-02-06T22:00:16.334Z,101656.48
2018-02-06T22:02:42.075Z,101657.72
2018-02-06T22:05:07.834Z,101659.04
2018-02-06T22:07:33.570Z,101662.08
2018-02-06T22:09:59.323Z,101659.61
2018-02-06T22:12:25.075Z,101658.25
2018-02-06T22:14:50.969Z,101656.80
2018-02-06T22:17:16.739Z,101663.81
2018-02-06T22:19:42.500Z,101661.59
2018-02-06T22:22:09.247Z,101660.83
2018-02-06T22:24:35.042Z,101659.42
2018-02-06T22:27:00.779Z,101658.12
2018-02-06T22:29:26.551Z,101662.59
2018-02-06T22:31:52.297Z,101656.56
2018-02-06T22:34:18.056Z,101664.02
2018-02-06T22:36:43.978Z,101663.43
2018-02-06T22:39:11.063Z,101661.89
2018-02-06T22:41:36.897Z,101667.60
2018-02-06T22:44:03.410Z,101668.81
2018-02-06T22:46:29.251Z,101660.14
2018-02-06T22:48:56.966Z,101668.84
2018-02-06T22:51:23.389Z,101665.88
2018-02-06T22:53:49.610Z,101657.91
2018-02-06T22:56:16.227Z,101660.91
2018-02-06T22:58:42.006Z,101655.45
2018-02-06T23:01:07.762Z,101652.02
2018-02-06T23:03:33.515Z,101642.42
2018-02-06T23:05:59.286Z,101649.83
2018-02-06T23:08:25.046Z,101651.02
2018-02-06T23:10:50.798Z,101650.17
2018-02-06T23:13:16.557Z,101643.45
2018-02-06T23:15:42.306Z,101650.39
2018-02-06T23:18:08.054Z,101652.89
2018-02-06T23:20:33.807Z,101657.09
2018-02-06T23:22:59.572Z,101646.52
2018-02-06T23:25:25.327Z,101641.67
2018-02-06T23:27:51.081Z,101639.30
2018-02-06T23:30:16.835Z,101640.95
2018-02-06T23:32:42.591Z,101643.45
2018-02-06T23:35:08.346Z,101645.69
2018-02-06T23:37:34.122Z,101655.05
2018-02-06T23:39:59.867Z,101650.40
2018-02-06T23:42:25.629Z,101647.41
2018-02-06T23:44:51.386Z,101641.16
2018-02-06T23:47:17.149Z,101639.61
2018-02-06T23:49:42.878Z,101634.81
2018-02-06T23:52:08.635Z,101635.75
2018-02-06T23:54:34.382Z,101628.42
2018-02-06T23:57:00.152Z,101626.50
2018-02-06T23:59:25.919Z,101631.05
